sensor_id;sensor_type;location;lat;lon;timestamp;P1;P2;P0
20157;PMS5003;10239;56.820;24.416;2022-09-27T00:01:05;3.60;3.00;1.80
20157;PMS5003;10239;56.820;24.416;2022-09-27T00:03:35;2.40;2.40;2.20
20157;PMS5003;10239;56.820;24.416;2022-09-27T00:06:05;4.00;4.00;3.00
20157;PMS5003;10239;56.820;24.416;2022-09-27T00:08:34;2.60;2.60;2.00
20157;PMS5003;10239;56.820;24.416;2022-09-27T00:11:06;3.00;3.00;2.80
20157;PMS5003;10239;56.820;24.416;2022-09-27T00:13:40;2.60;2.60;2.40
20157;PMS5003;10239;56.820;24.416;2022-09-27T00:16:09;3.80;3.80;3.00
20157;PMS5003;10239;56.820;24.416;2022-09-27T00:18:37;2.60;2.60;2.60
20157;PMS5003;10239;56.820;24.416;2022-09-27T00:21:05;4.20;4.20;2.80
20157;PMS5003;10239;56.820;24.416;2022-09-27T00:23:35;3.00;3.00;2.00
20157;PMS5003;10239;56.820;24.416;2022-09-27T00:26:03;3.00;3.00;3.00
20157;PMS5003;10239;56.820;24.416;2022-09-27T00:28:32;2.80;2.80;2.20
20157;PMS5003;10239;56.820;24.416;2022-09-27T00:31:00;2.40;2.40;2.20
20157;PMS5003;10239;56.820;24.416;2022-09-27T00:33:28;3.20;3.20;3.00
20157;PMS5003;10239;56.820;24.416;2022-09-27T00:36:02;2.60;2.60;2.60
20157;PMS5003;10239;56.820;24.416;2022-09-27T00:38:31;5.40;5.00;3.00
20157;PMS5003;10239;56.820;24.416;2022-09-27T00:40:59;4.40;4.40;3.80
20157;PMS5003;10239;56.820;24.416;2022-09-27T00:43:40;3.00;3.00;3.00
20157;PMS5003;10239;56.820;24.416;2022-09-27T00:46:11;3.20;3.20;2.20
20157;PMS5003;10239;56.820;24.416;2022-09-27T00:48:41;3.20;3.20;3.00
20157;PMS5003;10239;56.820;24.416;2022-09-27T00:51:09;3.00;3.00;3.00
20157;PMS5003;10239;56.820;24.416;2022-09-27T00:53:38;3.00;3.00;2.00
20157;PMS5003;10239;56.820;24.416;2022-09-27T00:56:14;3.00;3.00;2.40
20157;PMS5003;10239;56.820;24.416;2022-09-27T00:58:49;1.00;1.00;0.00
20157;PMS5003;10239;56.820;24.416;2022-09-27T01:01:25;4.40;4.40;3.00
20157;PMS5003;10239;56.820;24.416;2022-09-27T01:04:04;3.00;3.00;2.00
20157;PMS5003;10239;56.820;24.416;2022-09-27T01:06:34;3.20;3.20;3.00
20157;PMS5003;10239;56.820;24.416;2022-09-27T01:09:02;4.00;4.00;3.00
20157;PMS5003;10239;56.820;24.416;2022-09-27T01:20:27;2.40;2.40;2.00
20157;PMS5003;10239;56.820;24.416;2022-09-27T01:32:45;1.80;1.80;1.20
20157;PMS5003;10239;56.820;24.416;2022-09-27T01:35:23;2.80;2.80;2.00
20157;PMS5003;10239;56.820;24.416;2022-09-27T01:47:00;6.00;6.00;5.00
20157;PMS5003;10239;56.820;24.416;2022-09-27T01:49:46;2.00;2.00;1.00
20157;PMS5003;10239;56.820;24.416;2022-09-27T01:52:38;3.00;3.00;2.00
20157;PMS5003;10239;56.820;24.416;2022-09-27T01:55:12;5.00;5.00;2.60
20157;PMS5003;10239;56.820;24.416;2022-09-27T01:58:09;2.40;2.40;2.00
20157;PMS5003;10239;56.820;24.416;2022-09-27T02:00:41;3.00;3.00;2.00
20157;PMS5003;10239;56.820;24.416;2022-09-27T02:03:25;2.20;2.20;2.00
20157;PMS5003;10239;56.820;24.416;2022-09-27T02:06:26;3.00;3.00;2.20
20157;PMS5003;10239;56.820;24.416;2022-09-27T02:09:26;3.00;3.00;2.00
20157;PMS5003;10239;56.820;24.416;2022-09-27T02:12:13;4.40;4.40;3.00
20157;PMS5003;10239;56.820;24.416;2022-09-27T02:14:54;5.00;5.00;3.40
20157;PMS5003;10239;56.820;24.416;2022-09-27T02:26:16;2.40;2.40;2.20
20157;PMS5003;10239;56.820;24.416;2022-09-27T02:28:54;3.60;3.60;2.60
20157;PMS5003;10239;56.820;24.416;2022-09-27T02:31:38;3.00;3.00;2.80
20157;PMS5003;10239;56.820;24.416;2022-09-27T02:34:07;5.60;3.00;2.40
20157;PMS5003;10239;56.820;24.416;2022-09-27T02:36:37;3.80;3.80;3.00
20157;PMS5003;10239;56.820;24.416;2022-09-27T02:39:06;3.60;3.60;3.00
20157;PMS5003;10239;56.820;24.416;2022-09-27T02:41:34;3.40;3.40;3.00
20157;PMS5003;10239;56.820;24.416;2022-09-27T02:44:03;4.20;4.20;2.20
20157;PMS5003;10239;56.820;24.416;2022-09-27T02:52:51;5.00;5.00;4.40
20157;PMS5003;10239;56.820;24.416;2022-09-27T03:04:58;3.20;3.20;2.60
20157;PMS5003;10239;56.820;24.416;2022-09-27T03:07:31;2.80;2.80;2.00
20157;PMS5003;10239;56.820;24.416;2022-09-27T03:10:00;3.00;3.00;2.40
20157;PMS5003;10239;56.820;24.416;2022-09-27T03:12:28;3.20;3.20;3.00
20157;PMS5003;10239;56.820;24.416;2022-09-27T03:14:56;3.00;3.00;3.00
20157;PMS5003;10239;56.820;24.416;2022-09-27T03:18:01;2.40;2.40;2.40
20157;PMS5003;10239;56.820;24.416;2022-09-27T03:20:47;5.00;5.00;2.40
20157;PMS5003;10239;56.820;24.416;2022-09-27T03:23:17;6.80;6.80;3.00
20157;PMS5003;10239;56.820;24.416;2022-09-27T03:25:46;2.40;2.40;2.00
20157;PMS5003;10239;56.820;24.416;2022-09-27T03:28:14;5.40;5.40;3.80
20157;PMS5003;10239;56.820;24.416;2022-09-27T03:30:45;3.20;3.20;2.40
20157;PMS5003;10239;56.820;24.416;2022-09-27T03:33:33;2.60;2.60;2.20
20157;PMS5003;10239;56.820;24.416;2022-09-27T03:36:06;2.60;2.60;2.00
20157;PMS5003;10239;56.820;24.416;2022-09-27T03:38:34;3.60;3.60;2.20
20157;PMS5003;10239;56.820;24.416;2022-09-27T03:41:02;5.20;5.20;4.60
20157;PMS5003;10239;56.820;24.416;2022-09-27T03:43:30;3.80;3.80;3.00
20157;PMS5003;10239;56.820;24.416;2022-09-27T03:46:01;5.40;5.40;3.40
20157;PMS5003;10239;56.820;24.416;2022-09-27T03:48:29;3.60;3.60;2.60
20157;PMS5003;10239;56.820;24.416;2022-09-27T03:50:59;3.80;3.80;3.00
20157;PMS5003;10239;56.820;24.416;2022-09-27T03:53:27;6.00;6.00;4.60
20157;PMS5003;10239;56.820;24.416;2022-09-27T03:55:55;2.20;2.20;1.20
20157;PMS5003;10239;56.820;24.416;2022-09-27T03:58:23;6.00;6.00;5.00
20157;PMS5003;10239;56.820;24.416;2022-09-27T04:00:50;5.00;5.00;3.40
20157;PMS5003;10239;56.820;24.416;2022-09-27T04:03:18;6.00;6.00;3.80
20157;PMS5003;10239;56.820;24.416;2022-09-27T04:06:04;7.60;6.00;5.00
20157;PMS5003;10239;56.820;24.416;2022-09-27T04:08:36;2.60;2.60;2.00
20157;PMS5003;10239;56.820;24.416;2022-09-27T04:11:05;2.80;2.80;2.00
20157;PMS5003;10239;56.820;24.416;2022-09-27T04:13:33;5.00;5.00;4.60
20157;PMS5003;10239;56.820;24.416;2022-09-27T04:16:01;5.00;5.00;3.40
20157;PMS5003;10239;56.820;24.416;2022-09-27T04:19:02;3.80;3.80;2.60
20157;PMS5003;10239;56.820;24.416;2022-09-27T04:21:48;3.40;3.40;3.00
20157;PMS5003;10239;56.820;24.416;2022-09-27T04:24:16;5.00;5.00;3.00
20157;PMS5003;10239;56.820;24.416;2022-09-27T04:27:07;5.60;5.60;5.00
20157;PMS5003;10239;56.820;24.416;2022-09-27T04:29:38;5.00;5.00;3.40
20157;PMS5003;10239;56.820;24.416;2022-09-27T04:32:25;6.60;6.60;5.00
20157;PMS5003;10239;56.820;24.416;2022-09-27T04:35:11;4.60;3.00;1.00
20157;PMS5003;10239;56.820;24.416;2022-09-27T04:37:58;6.20;6.20;3.00
20157;PMS5003;10239;56.820;24.416;2022-09-27T04:40:26;8.00;8.00;5.80
20157;PMS5003;10239;56.820;24.416;2022-09-27T04:42:53;6.80;6.80;5.40
20157;PMS5003;10239;56.820;24.416;2022-09-27T04:45:22;6.40;6.40;5.80
20157;PMS5003;10239;56.820;24.416;2022-09-27T04:47:49;5.80;5.80;4.60
20157;PMS5003;10239;56.820;24.416;2022-09-27T04:50:17;11.20;11.20;7.80
20157;PMS5003;10239;56.820;24.416;2022-09-27T04:53:00;6.00;6.00;5.00
20157;PMS5003;10239;56.820;24.416;2022-09-27T04:55:28;6.00;6.00;5.00
20157;PMS5003;10239;56.820;24.416;2022-09-27T04:57:56;13.00;11.60;7.80
20157;PMS5003;10239;56.820;24.416;2022-09-27T05:00:24;6.00;6.00;5.00
20157;PMS5003;10239;56.820;24.416;2022-09-27T05:03:01;6.40;6.40;5.00
20157;PMS5003;10239;56.820;24.416;2022-09-27T05:05:31;9.40;9.40;7.20
20157;PMS5003;10239;56.820;24.416;2022-09-27T05:07:59;6.00;6.00;3.00
20157;PMS5003;10239;56.820;24.416;2022-09-27T05:10:46;2.20;2.20;2.00
20157;PMS5003;10239;56.820;24.416;2022-09-27T05:13:15;8.00;8.00;6.00
20157;PMS5003;10239;56.820;24.416;2022-09-27T05:15:44;7.00;7.00;6.20
20157;PMS5003;10239;56.820;24.416;2022-09-27T05:18:50;6.20;6.20;4.40
20157;PMS5003;10239;56.820;24.416;2022-09-27T05:21:56;5.80;5.80;4.80
20157;PMS5003;10239;56.820;24.416;2022-09-27T05:24:25;8.20;8.20;6.00
20157;PMS5003;10239;56.820;24.416;2022-09-27T05:26:58;4.00;4.00;3.80
20157;PMS5003;10239;56.820;24.416;2022-09-27T05:29:27;7.80;7.80;6.00
20157;PMS5003;10239;56.820;24.416;2022-09-27T05:32:11;6.80;6.80;5.60
20157;PMS5003;10239;56.820;24.416;2022-09-27T05:34:40;6.50;6.50;6.00
20157;PMS5003;10239;56.820;24.416;2022-09-27T05:37:08;9.00;9.00;6.00
20157;PMS5003;10239;56.820;24.416;2022-09-27T05:39:38;8.00;8.00;6.00
20157;PMS5003;10239;56.820;24.416;2022-09-27T05:42:06;8.25;8.25;6.00
20157;PMS5003;10239;56.820;24.416;2022-09-27T05:44:36;7.75;7.75;6.00
20157;PMS5003;10239;56.820;24.416;2022-09-27T05:47:05;6.75;6.75;5.00
20157;PMS5003;10239;56.820;24.416;2022-09-27T05:49:33;6.00;6.00;4.50
20157;PMS5003;10239;56.820;24.416;2022-09-27T05:52:03;7.00;7.00;5.50
20157;PMS5003;10239;56.820;24.416;2022-09-27T05:54:31;6.00;6.00;5.75
20157;PMS5003;10239;56.820;24.416;2022-09-27T05:56:59;5.75;5.75;5.25
20157;PMS5003;10239;56.820;24.416;2022-09-27T05:59:41;9.00;9.00;6.00
20157;PMS5003;10239;56.820;24.416;2022-09-27T06:02:29;4.25;4.25;4.00
20157;PMS5003;10239;56.820;24.416;2022-09-27T06:05:03;6.25;6.25;5.25
20157;PMS5003;10239;56.820;24.416;2022-09-27T06:07:49;6.50;6.50;5.50
20157;PMS5003;10239;56.820;24.416;2022-09-27T06:10:26;8.00;8.00;5.50
20157;PMS5003;10239;56.820;24.416;2022-09-27T06:13:02;6.50;6.50;4.00
20157;PMS5003;10239;56.820;24.416;2022-09-27T06:15:38;6.00;6.00;5.00
20157;PMS5003;10239;56.820;24.416;2022-09-27T06:18:08;6.50;6.50;6.00
20157;PMS5003;10239;56.820;24.416;2022-09-27T06:20:39;6.25;6.25;4.25
20157;PMS5003;10239;56.820;24.416;2022-09-27T06:23:12;6.25;6.25;5.00
20157;PMS5003;10239;56.820;24.416;2022-09-27T06:25:41;6.60;6.60;5.40
20157;PMS5003;10239;56.820;24.416;2022-09-27T06:28:17;4.80;4.80;4.20
20157;PMS5003;10239;56.820;24.416;2022-09-27T06:30:48;5.40;5.40;4.00
20157;PMS5003;10239;56.820;24.416;2022-09-27T06:33:34;6.00;6.00;5.00
20157;PMS5003;10239;56.820;24.416;2022-09-27T06:36:06;6.00;6.00;4.20
20157;PMS5003;10239;56.820;24.416;2022-09-27T06:38:36;6.20;6.20;5.00
20157;PMS5003;10239;56.820;24.416;2022-09-27T06:41:14;6.00;6.00;4.20
20157;PMS5003;10239;56.820;24.416;2022-09-27T06:43:59;6.20;6.20;4.40
20157;PMS5003;10239;56.820;24.416;2022-09-27T06:46:45;3.60;3.60;2.80
20157;PMS5003;10239;56.820;24.416;2022-09-27T06:49:33;5.60;5.60;4.80
20157;PMS5003;10239;56.820;24.416;2022-09-27T06:52:01;5.00;5.00;3.40
20157;PMS5003;10239;56.820;24.416;2022-09-27T06:54:29;7.20;7.20;5.00
20157;PMS5003;10239;56.820;24.416;2022-09-27T06:56:58;5.00;5.00;4.80
20157;PMS5003;10239;56.820;24.416;2022-09-27T06:59:28;6.60;6.60;4.80
20157;PMS5003;10239;56.820;24.416;2022-09-27T07:02:33;4.40;4.40;4.00
20157;PMS5003;10239;56.820;24.416;2022-09-27T07:05:18;6.80;6.80;6.00
20157;PMS5003;10239;56.820;24.416;2022-09-27T07:08:22;5.20;5.20;3.00
20157;PMS5003;10239;56.820;24.416;2022-09-27T07:10:55;5.40;5.40;4.20
20157;PMS5003;10239;56.820;24.416;2022-09-27T07:13:28;4.00;4.00;3.20
20157;PMS5003;10239;56.820;24.416;2022-09-27T07:16:01;3.80;3.80;2.00
20157;PMS5003;10239;56.820;24.416;2022-09-27T07:18:29;4.80;4.80;4.00
20157;PMS5003;10239;56.820;24.416;2022-09-27T07:20:58;5.60;5.60;4.40
20157;PMS5003;10239;56.820;24.416;2022-09-27T07:23:28;3.20;3.20;2.00
20157;PMS5003;10239;56.820;24.416;2022-09-27T07:25:59;4.20;4.20;3.20
20157;PMS5003;10239;56.820;24.416;2022-09-27T07:28:30;7.00;7.00;5.20
20157;PMS5003;10239;56.820;24.416;2022-09-27T07:31:00;7.40;7.40;5.00
20157;PMS5003;10239;56.820;24.416;2022-09-27T07:33:29;6.00;6.00;4.60
20157;PMS5003;10239;56.820;24.416;2022-09-27T07:36:04;4.60;4.60;3.40
20157;PMS5003;10239;56.820;24.416;2022-09-27T07:38:34;4.40;4.40;4.20
20157;PMS5003;10239;56.820;24.416;2022-09-27T07:41:09;6.00;6.00;5.20
20157;PMS5003;10239;56.820;24.416;2022-09-27T07:43:40;4.20;4.20;3.60
20157;PMS5003;10239;56.820;24.416;2022-09-27T07:46:11;4.60;4.60;4.00
20157;PMS5003;10239;56.820;24.416;2022-09-27T07:48:58;7.00;5.40;3.40
20157;PMS5003;10239;56.820;24.416;2022-09-27T07:52:04;6.00;6.00;4.40
20157;PMS5003;10239;56.820;24.416;2022-09-27T07:54:46;3.40;3.40;3.00
20157;PMS5003;10239;56.820;24.416;2022-09-27T07:57:30;5.40;5.40;4.00
20157;PMS5003;10239;56.820;24.416;2022-09-27T07:59:59;5.20;5.20;4.20
20157;PMS5003;10239;56.820;24.416;2022-09-27T08:02:27;5.00;5.00;4.00
20157;PMS5003;10239;56.820;24.416;2022-09-27T08:04:55;4.00;4.00;3.80
20157;PMS5003;10239;56.820;24.416;2022-09-27T08:07:25;3.20;3.20;3.00
20157;PMS5003;10239;56.820;24.416;2022-09-27T08:09:54;4.80;4.80;4.20
20157;PMS5003;10239;56.820;24.416;2022-09-27T08:12:22;5.40;5.40;4.60
20157;PMS5003;10239;56.820;24.416;2022-09-27T08:14:50;3.20;3.20;2.00
20157;PMS5003;10239;56.820;24.416;2022-09-27T08:17:19;2.60;2.60;2.00
20157;PMS5003;10239;56.820;24.416;2022-09-27T08:20:06;4.20;4.20;4.00
20157;PMS5003;10239;56.820;24.416;2022-09-27T08:22:45;5.20;5.20;4.60
20157;PMS5003;10239;56.820;24.416;2022-09-27T08:25:26;16.50;15.25;8.50
20157;PMS5003;10239;56.820;24.416;2022-09-27T08:28:07;7.20;7.20;5.20
20157;PMS5003;10239;56.820;24.416;2022-09-27T08:30:47;6.60;6.60;5.20
20157;PMS5003;10239;56.820;24.416;2022-09-27T08:33:15;41.20;35.60;21.60
20157;PMS5003;10239;56.820;24.416;2022-09-27T08:35:43;11.60;11.60;7.60
20157;PMS5003;10239;56.820;24.416;2022-09-27T08:38:11;10.00;10.00;7.20
20157;PMS5003;10239;56.820;24.416;2022-09-27T08:47:14;9.80;9.80;5.80
20157;PMS5003;10239;56.820;24.416;2022-09-27T08:49:50;10.40;10.40;7.80
20157;PMS5003;10239;56.820;24.416;2022-09-27T08:52:34;7.60;7.60;5.60
20157;PMS5003;10239;56.820;24.416;2022-09-27T08:55:21;9.20;9.20;6.40
20157;PMS5003;10239;56.820;24.416;2022-09-27T08:57:58;6.60;6.60;3.60
20157;PMS5003;10239;56.820;24.416;2022-09-27T09:00:27;6.60;6.60;5.00
20157;PMS5003;10239;56.820;24.416;2022-09-27T09:02:56;17.40;17.40;10.20
20157;PMS5003;10239;56.820;24.416;2022-09-27T09:05:29;7.80;7.80;6.40
20157;PMS5003;10239;56.820;24.416;2022-09-27T09:16:58;12.40;12.40;8.60
20157;PMS5003;10239;56.820;24.416;2022-09-27T09:20:15;6.20;6.20;4.60
20157;PMS5003;10239;56.820;24.416;2022-09-27T09:33:37;18.00;18.00;11.50
20157;PMS5003;10239;56.820;24.416;2022-09-27T09:39:07;6.00;6.00;5.00
20157;PMS5003;10239;56.820;24.416;2022-09-27T09:44:40;8.25;8.25;5.50
20157;PMS5003;10239;56.820;24.416;2022-09-27T09:50:15;19.25;19.25;12.50
20157;PMS5003;10239;56.820;24.416;2022-09-27T09:53:18;6.50;6.50;4.75
20157;PMS5003;10239;56.820;24.416;2022-09-27T09:55:54;7.00;7.00;5.00
20157;PMS5003;10239;56.820;24.416;2022-09-27T10:01:16;8.25;7.75;5.75
20157;PMS5003;10239;56.820;24.416;2022-09-27T10:03:47;4.00;4.00;2.25
20157;PMS5003;10239;56.820;24.416;2022-09-27T10:06:15;5.00;5.00;3.00
20157;PMS5003;10239;56.820;24.416;2022-09-27T10:08:45;5.50;5.50;4.00
20157;PMS5003;10239;56.820;24.416;2022-09-27T10:11:31;6.75;6.75;5.75
20157;PMS5003;10239;56.820;24.416;2022-09-27T10:14:16;7.25;7.25;5.00
20157;PMS5003;10239;56.820;24.416;2022-09-27T10:16:52;8.75;8.75;7.25
20157;PMS5003;10239;56.820;24.416;2022-09-27T10:19:26;6.75;6.75;5.00
20157;PMS5003;10239;56.820;24.416;2022-09-27T10:22:01;5.00;5.00;4.00
20157;PMS5003;10239;56.820;24.416;2022-09-27T10:27:48;6.67;6.67;4.00
20157;PMS5003;10239;56.820;24.416;2022-09-27T10:30:29;5.25;5.25;4.00
20157;PMS5003;10239;56.820;24.416;2022-09-27T10:33:05;9.25;7.50;4.25
20157;PMS5003;10239;56.820;24.416;2022-09-27T10:35:44;11.00;9.00;5.00
20157;PMS5003;10239;56.820;24.416;2022-09-27T10:38:32;8.00;8.00;4.25
20157;PMS5003;10239;56.820;24.416;2022-09-27T10:41:25;9.00;9.00;6.50
20157;PMS5003;10239;56.820;24.416;2022-09-27T10:46:48;7.50;7.50;6.75
20157;PMS5003;10239;56.820;24.416;2022-09-27T10:49:41;8.50;8.50;6.50
20157;PMS5003;10239;56.820;24.416;2022-09-27T10:52:26;8.00;8.00;6.00
20157;PMS5003;10239;56.820;24.416;2022-09-27T10:55:03;7.25;7.25;6.25
20157;PMS5003;10239;56.820;24.416;2022-09-27T10:57:40;7.75;7.75;7.00
20157;PMS5003;10239;56.820;24.416;2022-09-27T11:00:23;6.25;6.25;5.25
20157;PMS5003;10239;56.820;24.416;2022-09-27T11:02:56;9.75;9.75;6.25
20157;PMS5003;10239;56.820;24.416;2022-09-27T11:05:34;8.50;8.50;6.00
20157;PMS5003;10239;56.820;24.416;2022-09-27T11:11:32;9.25;9.25;7.25
20157;PMS5003;10239;56.820;24.416;2022-09-27T11:14:04;9.00;9.00;7.50
20157;PMS5003;10239;56.820;24.416;2022-09-27T11:26:02;11.75;11.75;7.75
20157;PMS5003;10239;56.820;24.416;2022-09-27T11:28:15;10.00;10.00;7.50
20157;PMS5003;10239;56.820;24.416;2022-09-27T11:31:12;10.25;10.25;8.00
20157;PMS5003;10239;56.820;24.416;2022-09-27T11:37:14;9.50;9.50;7.00
20157;PMS5003;10239;56.820;24.416;2022-09-27T11:43:00;10.50;8.75;7.00
20157;PMS5003;10239;56.820;24.416;2022-09-27T11:52:28;9.50;9.50;7.00
20157;PMS5003;10239;56.820;24.416;2022-09-27T11:55:10;11.00;11.00;7.50
20157;PMS5003;10239;56.820;24.416;2022-09-27T11:58:11;17.25;17.25;11.50
20157;PMS5003;10239;56.820;24.416;2022-09-27T12:00:47;6.75;6.75;5.00
20157;PMS5003;10239;56.820;24.416;2022-09-27T12:10:08;9.50;9.50;7.00
20157;PMS5003;10239;56.820;24.416;2022-09-27T12:12:43;11.75;11.75;8.25
20157;PMS5003;10239;56.820;24.416;2022-09-27T12:15:26;8.50;8.50;7.75
20157;PMS5003;10239;56.820;24.416;2022-09-27T12:18:06;12.00;10.25;6.00
20157;PMS5003;10239;56.820;24.416;2022-09-27T12:20:35;9.75;9.75;6.25
20157;PMS5003;10239;56.820;24.416;2022-09-27T12:23:14;11.50;11.50;8.00
20157;PMS5003;10239;56.820;24.416;2022-09-27T12:25:57;6.75;6.75;4.00
20157;PMS5003;10239;56.820;24.416;2022-09-27T12:28:51;9.25;9.25;7.00
20157;PMS5003;10239;56.820;24.416;2022-09-27T12:34:27;9.25;9.25;7.50
20157;PMS5003;10239;56.820;24.416;2022-09-27T12:37:30;9.50;9.50;6.50
20157;PMS5003;10239;56.820;24.416;2022-09-27T12:42:54;10.00;10.00;5.75
20157;PMS5003;10239;56.820;24.416;2022-09-27T12:49:05;10.75;10.75;8.50
20157;PMS5003;10239;56.820;24.416;2022-09-27T12:51:29;10.75;10.75;7.25
20157;PMS5003;10239;56.820;24.416;2022-09-27T12:57:05;9.25;9.25;6.50
20157;PMS5003;10239;56.820;24.416;2022-09-27T13:02:48;10.75;10.75;7.00
20157;PMS5003;10239;56.820;24.416;2022-09-27T13:14:17;9.75;9.75;7.50
20157;PMS5003;10239;56.820;24.416;2022-09-27T13:16:52;9.50;9.50;7.25
20157;PMS5003;10239;56.820;24.416;2022-09-27T13:25:45;9.50;9.50;7.75
20157;PMS5003;10239;56.820;24.416;2022-09-27T13:28:34;9.00;9.00;7.00
20157;PMS5003;10239;56.820;24.416;2022-09-27T13:35:20;8.25;8.25;7.00
20157;PMS5003;10239;56.820;24.416;2022-09-27T13:38:17;9.00;9.00;7.00
20157;PMS5003;10239;56.820;24.416;2022-09-27T13:40:52;9.50;9.50;6.50
20157;PMS5003;10239;56.820;24.416;2022-09-27T13:46:52;7.50;7.00;6.00
20157;PMS5003;10239;56.820;24.416;2022-09-27T13:49:30;7.00;7.00;5.50
20157;PMS5003;10239;56.820;24.416;2022-09-27T14:02:05;7.00;7.00;6.00
20157;PMS5003;10239;56.820;24.416;2022-09-27T14:04:32;10.25;10.25;6.50
20157;PMS5003;10239;56.820;24.416;2022-09-27T14:07:09;7.75;7.75;6.00
20157;PMS5003;10239;56.820;24.416;2022-09-27T14:09:43;6.25;6.25;5.00
20157;PMS5003;10239;56.820;24.416;2022-09-27T14:12:19;9.50;9.50;7.00
20157;PMS5003;10239;56.820;24.416;2022-09-27T14:14:51;10.00;10.00;7.50
20157;PMS5003;10239;56.820;24.416;2022-09-27T14:17:22;9.00;9.00;6.75
20157;PMS5003;10239;56.820;24.416;2022-09-27T14:19:51;9.50;9.50;7.25
20157;PMS5003;10239;56.820;24.416;2022-09-27T14:22:21;8.25;8.25;6.00
20157;PMS5003;10239;56.820;24.416;2022-09-27T14:24:54;8.25;8.25;6.50
20157;PMS5003;10239;56.820;24.416;2022-09-27T14:27:34;7.00;7.00;5.00
20157;PMS5003;10239;56.820;24.416;2022-09-27T14:30:35;8.50;8.50;5.50
20157;PMS5003;10239;56.820;24.416;2022-09-27T14:33:27;6.00;6.00;3.50
20157;PMS5003;10239;56.820;24.416;2022-09-27T14:36:02;7.00;7.00;6.00
20157;PMS5003;10239;56.820;24.416;2022-09-27T14:38:55;8.00;8.00;7.00
20157;PMS5003;10239;56.820;24.416;2022-09-27T14:41:35;8.00;8.00;7.00
20157;PMS5003;10239;56.820;24.416;2022-09-27T14:44:09;8.75;8.75;6.75
20157;PMS5003;10239;56.820;24.416;2022-09-27T14:46:41;8.75;8.75;7.00
20157;PMS5003;10239;56.820;24.416;2022-09-27T14:49:22;13.25;13.25;9.50
20157;PMS5003;10239;56.820;24.416;2022-09-27T14:51:52;11.25;11.25;8.50
20157;PMS5003;10239;56.820;24.416;2022-09-27T14:54:23;14.75;14.75;11.00
20157;PMS5003;10239;56.820;24.416;2022-09-27T14:56:57;9.75;9.75;6.75
20157;PMS5003;10239;56.820;24.416;2022-09-27T14:59:26;10.50;10.50;8.00
20157;PMS5003;10239;56.820;24.416;2022-09-27T15:02:01;10.25;8.75;6.75
20157;PMS5003;10239;56.820;24.416;2022-09-27T15:04:42;11.00;11.00;8.25
20157;PMS5003;10239;56.820;24.416;2022-09-27T15:07:12;36.00;32.00;18.75
20157;PMS5003;10239;56.820;24.416;2022-09-27T15:09:43;18.00;15.00;9.25
20157;PMS5003;10239;56.820;24.416;2022-09-27T15:12:12;19.25;19.25;13.50
20157;PMS5003;10239;56.820;24.416;2022-09-27T15:14:48;30.20;30.00;18.40
20157;PMS5003;10239;56.820;24.416;2022-09-27T15:17:20;12.50;11.00;8.00
20157;PMS5003;10239;56.820;24.416;2022-09-27T15:19:55;13.25;12.00;7.00
20157;PMS5003;10239;56.820;24.416;2022-09-27T15:22:30;55.80;45.40;25.40
20157;PMS5003;10239;56.820;24.416;2022-09-27T15:25:10;54.80;44.60;25.20
20157;PMS5003;10239;56.820;24.416;2022-09-27T15:28:04;18.75;18.75;12.50
20157;PMS5003;10239;56.820;24.416;2022-09-27T15:30:42;41.20;36.40;22.80
20157;PMS5003;10239;56.820;24.416;2022-09-27T15:33:23;27.20;26.40;15.80
20157;PMS5003;10239;56.820;24.416;2022-09-27T15:35:54;89.20;84.60;38.40
20157;PMS5003;10239;56.820;24.416;2022-09-27T15:38:25;67.00;53.80;32.00
20157;PMS5003;10239;56.820;24.416;2022-09-27T15:40:58;28.80;25.60;12.40
20157;PMS5003;10239;56.820;24.416;2022-09-27T15:46:02;17.00;17.00;11.00
20157;PMS5003;10239;56.820;24.416;2022-09-27T15:48:32;8.25;8.25;5.00
20157;PMS5003;10239;56.820;24.416;2022-09-27T15:51:03;6.00;6.00;4.50
20157;PMS5003;10239;56.820;24.416;2022-09-27T15:54:06;8.50;8.50;5.50
20157;PMS5003;10239;56.820;24.416;2022-09-27T15:56:34;8.00;8.00;7.00
20157;PMS5003;10239;56.820;24.416;2022-09-27T15:59:02;8.00;8.00;7.00
20157;PMS5003;10239;56.820;24.416;2022-09-27T16:01:30;7.50;7.50;6.25
20157;PMS5003;10239;56.820;24.416;2022-09-27T16:03:58;6.25;6.25;5.50
20157;PMS5003;10239;56.820;24.416;2022-09-27T16:06:26;18.00;18.00;12.25
20157;PMS5003;10239;56.820;24.416;2022-09-27T16:08:54;9.00;9.00;7.75
20157;PMS5003;10239;56.820;24.416;2022-09-27T16:11:22;8.00;8.00;6.25
20157;PMS5003;10239;56.820;24.416;2022-09-27T16:13:49;7.75;7.75;6.25
20157;PMS5003;10239;56.820;24.416;2022-09-27T16:16:18;6.50;6.50;4.75
20157;PMS5003;10239;56.820;24.416;2022-09-27T16:18:47;8.25;8.25;6.25
20157;PMS5003;10239;56.820;24.416;2022-09-27T16:21:15;5.75;5.75;3.50
20157;PMS5003;10239;56.820;24.416;2022-09-27T16:23:43;9.50;9.00;6.00
20157;PMS5003;10239;56.820;24.416;2022-09-27T16:26:10;6.50;6.50;4.50
20157;PMS5003;10239;56.820;24.416;2022-09-27T16:28:39;8.50;8.50;7.00
20157;PMS5003;10239;56.820;24.416;2022-09-27T16:31:06;8.75;8.25;5.00
20157;PMS5003;10239;56.820;24.416;2022-09-27T16:33:35;8.00;8.00;6.00
20157;PMS5003;10239;56.820;24.416;2022-09-27T16:36:04;10.25;10.25;6.25
20157;PMS5003;10239;56.820;24.416;2022-09-27T16:38:43;6.75;6.75;5.50
20157;PMS5003;10239;56.820;24.416;2022-09-27T16:41:14;7.50;7.50;6.00
20157;PMS5003;10239;56.820;24.416;2022-09-27T16:43:42;7.00;7.00;5.75
20157;PMS5003;10239;56.820;24.416;2022-09-27T16:46:11;6.75;6.75;4.75
20157;PMS5003;10239;56.820;24.416;2022-09-27T16:48:41;6.00;6.00;4.00
20157;PMS5003;10239;56.820;24.416;2022-09-27T16:51:13;9.25;9.25;6.50
20157;PMS5003;10239;56.820;24.416;2022-09-27T16:54:04;6.50;6.50;5.00
20157;PMS5003;10239;56.820;24.416;2022-09-27T16:56:33;6.00;6.00;5.00
20157;PMS5003;10239;56.820;24.416;2022-09-27T16:59:01;7.20;7.20;5.00
20157;PMS5003;10239;56.820;24.416;2022-09-27T17:01:30;8.00;8.00;6.20
20157;PMS5003;10239;56.820;24.416;2022-09-27T17:03:58;8.00;8.00;5.40
20157;PMS5003;10239;56.820;24.416;2022-09-27T17:06:28;6.75;6.75;5.75
20157;PMS5003;10239;56.820;24.416;2022-09-27T17:09:00;9.20;9.20;7.20
20157;PMS5003;10239;56.820;24.416;2022-09-27T17:11:29;7.00;6.00;5.00
20157;PMS5003;10239;56.820;24.416;2022-09-27T17:13:56;11.00;11.00;7.40
20157;PMS5003;10239;56.820;24.416;2022-09-27T17:16:24;8.80;8.80;6.00
20157;PMS5003;10239;56.820;24.416;2022-09-27T17:18:51;6.40;6.40;5.00
20157;PMS5003;10239;56.820;24.416;2022-09-27T17:21:19;7.00;7.00;5.60
20157;PMS5003;10239;56.820;24.416;2022-09-27T17:23:47;9.00;9.00;6.00
20157;PMS5003;10239;56.820;24.416;2022-09-27T17:28:47;9.00;9.00;7.00
20157;PMS5003;10239;56.820;24.416;2022-09-27T17:31:16;7.20;7.20;5.80
20157;PMS5003;10239;56.820;24.416;2022-09-27T17:33:48;8.80;8.80;6.80
20157;PMS5003;10239;56.820;24.416;2022-09-27T17:36:24;5.60;5.60;4.00
20157;PMS5003;10239;56.820;24.416;2022-09-27T17:38:53;13.00;13.00;8.80
20157;PMS5003;10239;56.820;24.416;2022-09-27T17:41:21;11.20;11.20;7.80
20157;PMS5003;10239;56.820;24.416;2022-09-27T17:43:54;9.80;9.80;6.00
20157;PMS5003;10239;56.820;24.416;2022-09-27T17:46:25;13.20;13.20;7.80
20157;PMS5003;10239;56.820;24.416;2022-09-27T17:48:57;10.00;10.00;6.00
20157;PMS5003;10239;56.820;24.416;2022-09-27T17:51:47;5.20;5.20;4.00
20157;PMS5003;10239;56.820;24.416;2022-09-27T17:54:17;6.80;6.80;5.20